createdAt,value
2019-03-24T00:01:14.514Z,19.00
2019-03-24T00:03:42.907Z,21.47
2019-03-24T00:06:11.387Z,21.53
2019-03-24T00:08:39.786Z,23.03
2019-03-24T00:11:08.176Z,23.93
2019-03-24T00:13:36.571Z,23.83
2019-03-24T00:16:04.982Z,23.93
2019-03-24T00:18:33.443Z,25.13
2019-03-24T00:21:01.835Z,25.13
2019-03-24T00:23:30.512Z,26.13
2019-03-24T00:25:58.909Z,26.37
2019-03-24T00:28:27.302Z,26.03
2019-03-24T00:30:55.710Z,26.43
2019-03-24T00:33:24.102Z,25.77
2019-03-24T00:35:52.544Z,26.90
2019-03-24T00:38:20.953Z,26.73
2019-03-24T00:40:49.346Z,27.00
2019-03-24T00:43:17.737Z,27.70
2019-03-24T00:45:46.139Z,26.97
2019-03-24T00:48:14.540Z,27.47
2019-03-24T00:50:42.973Z,26.23
2019-03-24T00:53:11.370Z,26.87
2019-03-24T00:55:39.791Z,26.80
2019-03-24T00:58:08.186Z,25.47
2019-03-24T01:00:43.813Z,26.63
2019-03-24T01:03:12.212Z,26.17
2019-03-24T01:05:40.819Z,26.13
2019-03-24T01:08:09.435Z,26.77
2019-03-24T01:10:37.816Z,25.83
2019-03-24T01:13:06.745Z,25.93
2019-03-24T01:15:35.190Z,26.33
2019-03-24T01:18:03.648Z,25.80
2019-03-24T01:20:32.166Z,26.17
2019-03-24T01:23:00.567Z,25.90
2019-03-24T01:25:28.964Z,26.23
2019-03-24T01:27:57.391Z,26.43
2019-03-24T01:30:25.786Z,25.60
2019-03-24T01:32:54.188Z,25.37
2019-03-24T01:35:22.578Z,25.77
2019-03-24T01:37:50.976Z,26.47
2019-03-24T01:40:19.376Z,24.67
2019-03-24T01:42:47.781Z,25.27
2019-03-24T01:45:16.176Z,26.70
2019-03-24T01:47:44.610Z,26.73
2019-03-24T01:50:13.009Z,26.23
2019-03-24T01:52:41.412Z,26.40
2019-03-24T01:55:09.802Z,26.27
2019-03-24T01:57:38.195Z,26.20
2019-03-24T02:00:08.300Z,25.50
2019-03-24T02:02:36.732Z,26.57
2019-03-24T02:05:06.572Z,26.30
2019-03-24T02:07:34.975Z,25.53
2019-03-24T02:10:04.510Z,26.77
2019-03-24T02:12:32.946Z,26.37
2019-03-24T02:15:01.350Z,24.93
2019-03-24T02:17:29.787Z,25.20
2019-03-24T02:19:58.187Z,25.80
2019-03-24T02:22:26.626Z,25.20
2019-03-24T02:24:55.020Z,24.03
2019-03-24T02:27:23.443Z,24.50
2019-03-24T02:29:51.833Z,25.53
2019-03-24T02:32:20.253Z,25.93
2019-03-24T02:34:48.657Z,24.60
2019-03-24T02:37:17.120Z,25.23
2019-03-24T02:39:45.521Z,25.53
2019-03-24T02:42:13.954Z,24.80
2019-03-24T02:44:42.347Z,25.10
2019-03-24T02:47:10.788Z,24.23
2019-03-24T02:49:39.181Z,24.07
2019-03-24T02:52:07.683Z,24.20
2019-03-24T02:54:36.081Z,23.10
2019-03-24T02:57:04.548Z,23.63
2019-03-24T02:59:32.954Z,24.03
2019-03-24T03:02:01.395Z,23.63
2019-03-24T03:04:29.775Z,23.30
2019-03-24T03:06:58.178Z,23.30
2019-03-24T03:09:26.580Z,23.30
2019-03-24T03:11:54.984Z,23.03
2019-03-24T03:14:23.391Z,22.87
2019-03-24T03:16:51.792Z,23.07
2019-03-24T03:19:20.192Z,23.13
2019-03-24T03:21:48.590Z,23.47
2019-03-24T03:24:16.990Z,23.70
2019-03-24T03:26:45.385Z,22.23
2019-03-24T03:29:13.781Z,23.20
2019-03-24T03:31:42.257Z,23.23
2019-03-24T03:34:10.648Z,22.63
2019-03-24T03:36:39.084Z,22.37
2019-03-24T03:39:07.513Z,22.40
2019-03-24T03:41:35.988Z,21.83
2019-03-24T03:44:04.431Z,22.60
2019-03-24T03:46:32.864Z,22.23
2019-03-24T03:49:01.264Z,22.80
2019-03-24T03:51:29.670Z,21.73
2019-03-24T03:53:59.233Z,22.00
2019-03-24T03:56:27.850Z,22.07
2019-03-24T03:58:56.240Z,21.40
2019-03-24T04:01:24.765Z,22.30
2019-03-24T04:03:53.166Z,21.53
2019-03-24T04:06:21.565Z,20.67
2019-03-24T04:08:49.969Z,21.20
2019-03-24T04:11:18.454Z,21.87
2019-03-24T04:13:46.833Z,20.77
2019-03-24T04:16:15.294Z,21.00
2019-03-24T04:18:43.704Z,20.93
2019-03-24T04:21:12.098Z,20.73
2019-03-24T04:23:40.570Z,21.27
2019-03-24T04:26:08.963Z,20.80
2019-03-24T04:28:37.401Z,19.40
2019-03-24T04:31:05.791Z,20.00
2019-03-24T04:33:34.193Z,20.73
2019-03-24T04:36:02.666Z,19.63
2019-03-24T04:38:31.068Z,19.97
2019-03-24T04:40:59.474Z,19.57
2019-03-24T04:43:27.881Z,19.40
2019-03-24T04:45:56.288Z,18.97
2019-03-24T04:48:26.256Z,20.13
2019-03-24T04:50:54.662Z,19.43
2019-03-24T04:53:23.064Z,19.70
2019-03-24T04:55:51.461Z,20.27
2019-03-24T04:58:19.896Z,19.63
2019-03-24T05:00:48.312Z,19.17
2019-03-24T05:03:16.744Z,18.27
2019-03-24T05:05:45.144Z,18.03
2019-03-24T05:08:13.581Z,19.30
2019-03-24T05:10:41.974Z,19.07
2019-03-24T05:13:10.417Z,18.17
2019-03-24T05:15:38.820Z,18.60
2019-03-24T05:18:07.240Z,19.33
2019-03-24T05:20:35.636Z,19.13
2019-03-24T05:23:04.071Z,18.07
2019-03-24T05:25:32.467Z,18.13
2019-03-24T05:28:00.920Z,18.10
2019-03-24T05:30:29.319Z,18.07
2019-03-24T05:32:57.746Z,17.70
2019-03-24T05:35:26.147Z,17.30
2019-03-24T05:37:54.700Z,17.53
2019-03-24T05:40:23.103Z,16.90
2019-03-24T05:42:51.543Z,16.80
2019-03-24T05:45:19.944Z,17.33
2019-03-24T05:47:48.384Z,17.63
2019-03-24T05:50:16.891Z,17.47
2019-03-24T05:52:45.339Z,16.83
2019-03-24T05:55:13.744Z,16.50
2019-03-24T05:57:42.232Z,16.37
2019-03-24T06:00:10.706Z,16.50
2019-03-24T06:02:39.178Z,17.23
2019-03-24T06:05:07.618Z,16.83
2019-03-24T06:07:36.051Z,15.87
2019-03-24T06:10:07.164Z,15.53
2019-03-24T06:12:35.669Z,15.63
2019-03-24T06:15:05.230Z,15.37
2019-03-24T06:17:33.658Z,15.17
2019-03-24T06:20:02.058Z,14.93
2019-03-24T06:22:30.457Z,15.07
2019-03-24T06:24:58.862Z,15.60
2019-03-24T06:27:28.932Z,15.27
2019-03-24T06:29:58.972Z,14.60
2019-03-24T06:32:27.375Z,14.70
2019-03-24T06:34:57.309Z,14.17
2019-03-24T06:37:25.745Z,14.07
2019-03-24T06:39:54.178Z,14.27
2019-03-24T06:42:22.634Z,13.73
2019-03-24T06:44:51.099Z,13.77
2019-03-24T06:47:19.507Z,13.70
2019-03-24T06:49:47.903Z,13.60
2019-03-24T06:52:16.561Z,13.60
2019-03-24T06:54:44.955Z,12.80
2019-03-24T06:57:13.364Z,13.60
2019-03-24T06:59:41.768Z,13.40
2019-03-24T07:02:10.166Z,12.93
2019-03-24T07:04:38.590Z,13.23
2019-03-24T07:07:06.991Z,12.63
2019-03-24T07:09:35.475Z,12.83
2019-03-24T07:12:03.878Z,12.50
2019-03-24T07:14:32.281Z,12.17
2019-03-24T07:17:01.778Z,12.50
2019-03-24T07:19:30.176Z,11.60
2019-03-24T07:21:58.582Z,11.77
2019-03-24T07:24:26.994Z,11.93
2019-03-24T07:26:55.390Z,11.17
2019-03-24T07:29:23.792Z,11.63
2019-03-24T07:31:52.193Z,11.87
2019-03-24T07:34:20.669Z,11.53
2019-03-24T07:36:49.071Z,11.53
2019-03-24T07:39:17.495Z,11.30
2019-03-24T07:41:45.902Z,11.07
2019-03-24T07:44:14.391Z,10.77
2019-03-24T07:46:42.788Z,10.83
2019-03-24T07:49:11.240Z,10.80
2019-03-24T07:51:39.711Z,11.07
2019-03-24T07:54:08.229Z,10.23
2019-03-24T07:56:36.691Z,10.77
2019-03-24T07:59:05.134Z,10.53
2019-03-24T08:01:33.537Z,10.83
2019-03-24T08:04:01.975Z,9.63
2019-03-24T08:06:30.372Z,9.87
2019-03-24T08:08:58.812Z,10.63
2019-03-24T08:11:27.231Z,9.23
2019-03-24T08:13:55.662Z,9.53
2019-03-24T08:16:24.034Z,9.73
2019-03-24T08:18:52.452Z,9.93
2019-03-24T08:21:20.839Z,9.30
2019-03-24T08:23:49.283Z,9.30
2019-03-24T08:26:17.676Z,9.40
2019-03-24T08:28:46.102Z,8.87
2019-03-24T08:31:14.504Z,9.20
2019-03-24T08:33:42.920Z,8.27
2019-03-24T08:36:11.308Z,9.10
2019-03-24T08:38:39.739Z,8.83
2019-03-24T08:41:08.139Z,8.07
2019-03-24T08:43:36.596Z,9.10
2019-03-24T08:46:05.000Z,8.80
2019-03-24T08:48:40.819Z,8.60
2019-03-24T08:51:03.556Z,8.73
2019-03-24T08:53:31.960Z,8.80
2019-03-24T08:56:00.391Z,9.00
2019-03-24T08:58:28.754Z,8.63
2019-03-24T09:00:57.215Z,8.47
2019-03-24T09:03:25.612Z,8.13
2019-03-24T09:05:54.005Z,8.27
2019-03-24T09:08:22.394Z,7.77
2019-03-24T09:10:50.829Z,8.30
2019-03-24T09:13:19.228Z,8.00
2019-03-24T09:15:47.650Z,8.43
2019-03-24T09:18:16.054Z,8.57
2019-03-24T09:20:44.485Z,7.67
2019-03-24T09:23:12.871Z,7.73
2019-03-24T09:25:41.386Z,7.77
2019-03-24T09:28:09.882Z,7.67
2019-03-24T09:30:38.348Z,7.43
2019-03-24T09:33:06.754Z,8.03
2019-03-24T09:35:35.205Z,7.60
2019-03-24T09:38:05.236Z,6.83
2019-03-24T09:40:34.871Z,7.10
2019-03-24T09:43:03.320Z,6.67
2019-03-24T09:45:31.970Z,6.63
2019-03-24T09:48:00.544Z,6.50
2019-03-24T09:50:28.936Z,6.83
2019-03-24T09:52:57.498Z,6.33
2019-03-24T09:55:25.896Z,6.40
2019-03-24T09:57:54.283Z,6.90
2019-03-24T10:00:22.676Z,6.77
2019-03-24T10:02:51.070Z,6.73
2019-03-24T10:05:19.456Z,6.60
2019-03-24T10:07:47.846Z,6.30
2019-03-24T10:10:16.233Z,5.77
2019-03-24T10:12:44.620Z,5.67
2019-03-24T10:15:13.019Z,5.57
2019-03-24T10:17:41.400Z,5.97
2019-03-24T10:20:09.791Z,5.67
2019-03-24T10:22:38.261Z,5.50
2019-03-24T10:25:07.426Z,5.33
2019-03-24T10:27:35.820Z,5.50
2019-03-24T10:30:08.138Z,5.07
2019-03-24T10:32:36.615Z,5.63
2019-03-24T10:35:06.735Z,5.10
2019-03-24T10:37:35.121Z,4.90
2019-03-24T10:40:04.198Z,4.60
2019-03-24T10:42:32.650Z,5.20
2019-03-24T10:45:02.763Z,5.10
2019-03-24T10:47:31.148Z,4.60
2019-03-24T10:49:59.578Z,4.47
2019-03-24T10:52:27.972Z,4.60
2019-03-24T10:54:56.402Z,5.70
2019-03-24T10:57:25.301Z,5.37
2019-03-24T10:59:53.735Z,5.20
2019-03-24T11:02:22.190Z,6.07
2019-03-24T11:04:50.664Z,6.93
2019-03-24T11:07:19.050Z,6.33
2019-03-24T11:09:47.491Z,7.40
2019-03-24T11:12:15.882Z,6.83
2019-03-24T11:14:44.388Z,6.60
2019-03-24T11:17:12.783Z,6.43
2019-03-24T11:19:41.178Z,6.10
2019-03-24T11:22:09.574Z,5.73
2019-03-24T11:24:37.992Z,7.00
2019-03-24T11:27:06.395Z,7.23
2019-03-24T11:29:34.781Z,7.53
2019-03-24T11:32:03.176Z,7.37
2019-03-24T11:34:31.573Z,7.20
2019-03-24T11:36:59.975Z,6.73
2019-03-24T11:39:28.364Z,6.30
2019-03-24T11:41:56.757Z,6.57
2019-03-24T11:44:25.156Z,6.40
2019-03-24T11:46:53.550Z,6.67
2019-03-24T11:49:21.935Z,6.43
2019-03-24T11:51:50.343Z,6.37
2019-03-24T11:54:18.729Z,6.40
2019-03-24T11:56:47.150Z,6.03
2019-03-24T11:59:15.536Z,5.83
2019-03-24T12:01:43.968Z,6.17
2019-03-24T12:04:12.356Z,5.87
2019-03-24T12:06:40.850Z,6.07
2019-03-24T12:09:09.257Z,5.97
2019-03-24T12:11:37.687Z,6.03
2019-03-24T12:14:06.141Z,5.53
2019-03-24T12:16:34.571Z,5.87
2019-03-24T12:19:02.974Z,6.07
2019-03-24T12:21:31.403Z,5.90
2019-03-24T12:23:59.791Z,4.97
2019-03-24T12:26:28.226Z,5.00
2019-03-24T12:28:56.719Z,5.50
2019-03-24T12:31:25.137Z,5.63
2019-03-24T12:33:53.605Z,5.53
2019-03-24T12:36:21.992Z,5.50
2019-03-24T12:38:50.384Z,5.27
2019-03-24T12:41:18.772Z,5.20
2019-03-24T12:43:47.165Z,4.93
2019-03-24T12:46:15.555Z,5.27
2019-03-24T12:48:43.947Z,4.57
2019-03-24T12:51:12.344Z,4.53
2019-03-24T12:53:40.732Z,4.90
2019-03-24T12:56:09.114Z,4.50
2019-03-24T12:58:37.535Z,4.20
2019-03-24T13:01:05.926Z,4.60
2019-03-24T13:03:35.911Z,4.63
2019-03-24T13:06:04.894Z,4.57
2019-03-24T13:08:33.287Z,4.40
2019-03-24T13:11:01.733Z,4.50
2019-03-24T13:13:30.117Z,4.13
2019-03-24T13:15:58.525Z,4.50
2019-03-24T13:18:26.943Z,4.17
2019-03-24T13:20:55.364Z,4.37
2019-03-24T13:23:23.744Z,4.63
2019-03-24T13:25:52.175Z,4.30
2019-03-24T13:28:21.090Z,5.10
2019-03-24T13:30:49.486Z,4.67
2019-03-24T13:33:17.877Z,4.43
2019-03-24T13:35:47.445Z,4.60
2019-03-24T13:38:15.838Z,4.10
2019-03-24T13:40:44.224Z,3.90
2019-03-24T13:43:12.700Z,4.37
2019-03-24T13:45:41.097Z,3.93
2019-03-24T13:48:09.552Z,4.57
2019-03-24T13:50:38.069Z,4.33
2019-03-24T13:53:06.462Z,4.20
2019-03-24T13:55:34.843Z,4.13
2019-03-24T13:58:04.424Z,4.17
2019-03-24T14:00:32.822Z,4.20
2019-03-24T14:03:01.455Z,3.47
2019-03-24T14:05:29.839Z,4.00
2019-03-24T14:07:58.228Z,4.00
2019-03-24T14:10:26.625Z,4.47
2019-03-24T14:12:55.019Z,3.90
2019-03-24T14:15:23.413Z,4.23
2019-03-24T14:17:51.813Z,3.67
2019-03-24T14:20:20.202Z,3.97
2019-03-24T14:22:48.594Z,4.13
2019-03-24T14:25:16.986Z,3.90
2019-03-24T14:27:45.410Z,4.10
2019-03-24T14:30:13.798Z,4.00
2019-03-24T14:32:42.213Z,4.20
2019-03-24T14:35:10.607Z,4.03
2019-03-24T14:37:39.091Z,3.90
2019-03-24T14:40:08.010Z,4.37
2019-03-24T14:42:36.432Z,3.90
2019-03-24T14:45:06.956Z,4.30
2019-03-24T14:47:35.393Z,5.20
2019-03-24T14:50:06.351Z,5.67
2019-03-24T14:52:34.776Z,4.87
2019-03-24T14:55:03.175Z,5.50
2019-03-24T14:57:31.609Z,5.53
2019-03-24T14:59:59.996Z,5.60
2019-03-24T15:02:28.410Z,5.87
2019-03-24T15:04:56.816Z,6.50
2019-03-24T15:07:25.246Z,5.17
2019-03-24T15:09:53.632Z,5.50
2019-03-24T15:12:22.109Z,5.60
2019-03-24T15:14:50.491Z,6.03
2019-03-24T15:17:18.972Z,5.70
2019-03-24T15:19:47.367Z,5.87
2019-03-24T15:22:15.772Z,6.30
2019-03-24T15:24:44.185Z,5.87
2019-03-24T15:27:12.658Z,6.00
2019-03-24T15:29:41.056Z,7.80
2019-03-24T15:32:09.482Z,6.90
2019-03-24T15:34:37.914Z,6.60
2019-03-24T15:37:06.323Z,6.67
2019-03-24T15:39:34.887Z,8.50
2019-03-24T15:42:03.317Z,6.63
2019-03-24T15:44:31.725Z,6.27
2019-03-24T15:47:00.119Z,6.30
2019-03-24T15:49:28.510Z,6.27
2019-03-24T15:51:56.898Z,6.07
2019-03-24T15:54:25.383Z,5.80
2019-03-24T15:56:53.778Z,5.97
2019-03-24T15:59:22.163Z,5.80
2019-03-24T16:01:50.681Z,6.00
2019-03-24T16:04:19.073Z,6.30
2019-03-24T16:06:47.466Z,6.33
2019-03-24T16:09:15.860Z,6.10
2019-03-24T16:11:44.249Z,5.63
2019-03-24T16:14:15.222Z,5.10
2019-03-24T16:16:43.610Z,5.90
2019-03-24T16:19:12.014Z,5.53
2019-03-24T16:21:40.396Z,5.43
2019-03-24T16:24:08.791Z,5.07
2019-03-24T16:26:37.180Z,4.77
2019-03-24T16:29:05.576Z,6.07
2019-03-24T16:31:33.962Z,5.97
2019-03-24T16:34:02.353Z,6.00
2019-03-24T16:36:30.860Z,5.20
2019-03-24T16:39:03.569Z,6.80
2019-03-24T16:41:29.385Z,6.60
2019-03-24T16:43:57.779Z,6.40
2019-03-24T16:46:26.179Z,6.10
2019-03-24T16:48:54.566Z,6.33
2019-03-24T16:51:22.954Z,7.10
2019-03-24T16:53:51.432Z,8.40
2019-03-24T16:56:19.791Z,9.50
2019-03-24T16:58:48.456Z,8.37
2019-03-24T17:01:16.885Z,9.53
2019-03-24T17:03:45.275Z,9.43
2019-03-24T17:06:13.705Z,9.30
2019-03-24T17:08:42.064Z,5.53
2019-03-24T17:11:10.461Z,7.90
2019-03-24T17:13:38.921Z,8.37
2019-03-24T17:16:07.309Z,7.57
2019-03-24T17:18:35.772Z,8.83
2019-03-24T17:21:04.169Z,7.67
2019-03-24T17:23:32.635Z,8.17
2019-03-24T17:26:01.023Z,7.97
2019-03-24T17:28:29.446Z,9.03
2019-03-24T17:30:57.832Z,6.63
2019-03-24T17:33:26.263Z,5.67
2019-03-24T17:35:54.739Z,5.70
2019-03-24T17:38:23.219Z,8.97
2019-03-24T17:40:51.614Z,11.20
2019-03-24T17:43:20.057Z,11.40
2019-03-24T17:45:48.458Z,8.87
2019-03-24T17:48:16.940Z,9.30
2019-03-24T17:50:45.344Z,10.40
2019-03-24T17:53:13.802Z,10.37
2019-03-24T17:55:42.201Z,12.30
2019-03-24T17:58:10.639Z,11.37
2019-03-24T18:00:41.569Z,12.17
2019-03-24T18:03:10.002Z,12.17
2019-03-24T18:05:38.467Z,12.33
2019-03-24T18:08:06.937Z,13.27
2019-03-24T18:10:35.338Z,12.90
2019-03-24T18:13:03.909Z,12.50
2019-03-24T18:15:32.316Z,12.83
2019-03-24T18:18:00.803Z,12.47
2019-03-24T18:20:34.656Z,13.27
2019-03-24T18:23:03.048Z,13.20
2019-03-24T18:25:32.335Z,13.33
2019-03-24T18:28:00.791Z,13.07
2019-03-24T18:30:29.192Z,14.40
2019-03-24T18:32:57.605Z,13.00
2019-03-24T18:35:26.035Z,14.20
2019-03-24T18:37:54.447Z,13.73
2019-03-24T18:40:22.924Z,12.97
2019-03-24T18:42:51.320Z,12.70
2019-03-24T18:45:20.518Z,14.03
2019-03-24T18:47:48.918Z,13.40
2019-03-24T18:50:17.314Z,14.33
2019-03-24T18:52:45.718Z,13.50
2019-03-24T18:55:14.355Z,12.77
2019-03-24T18:57:42.777Z,13.53
2019-03-24T19:00:12.683Z,13.73
2019-03-24T19:02:41.149Z,13.33
2019-03-24T19:05:09.552Z,13.67
2019-03-24T19:07:37.961Z,13.57
2019-03-24T19:10:13.324Z,13.17
2019-03-24T19:12:41.719Z,12.90
2019-03-24T19:15:12.725Z,13.23
2019-03-24T19:17:41.127Z,13.13
2019-03-24T19:20:09.518Z,13.67
2019-03-24T19:22:37.922Z,13.87
2019-03-24T19:25:09.337Z,13.23
2019-03-24T19:27:37.731Z,12.87
2019-03-24T19:30:11.233Z,13.10
2019-03-24T19:32:39.640Z,12.93
2019-03-24T19:35:08.043Z,13.00
2019-03-24T19:37:37.963Z,13.10
2019-03-24T19:40:08.913Z,12.83
2019-03-24T19:42:37.305Z,12.87
2019-03-24T19:45:05.843Z,13.50
2019-03-24T19:47:34.297Z,12.83
2019-03-24T19:50:02.924Z,13.00
2019-03-24T19:52:31.330Z,12.73
2019-03-24T19:54:59.739Z,12.73
2019-03-24T19:57:28.133Z,12.77
2019-03-24T19:59:56.568Z,13.00
2019-03-24T20:02:24.971Z,12.73
2019-03-24T20:04:53.404Z,12.60
2019-03-24T20:07:21.827Z,12.67
2019-03-24T20:09:50.259Z,12.37
2019-03-24T20:12:18.667Z,12.97
2019-03-24T20:14:47.101Z,12.47
2019-03-24T20:17:15.498Z,12.63
2019-03-24T20:19:43.916Z,12.33
2019-03-24T20:22:12.314Z,12.73
2019-03-24T20:24:40.829Z,11.63
2019-03-24T20:27:09.219Z,11.97
2019-03-24T20:29:37.619Z,11.30
2019-03-24T20:32:06.069Z,11.30
2019-03-24T20:34:34.473Z,10.67
2019-03-24T20:37:02.916Z,10.63
2019-03-24T20:39:31.384Z,10.40
2019-03-24T20:41:59.791Z,10.37
2019-03-24T20:44:28.196Z,10.73
2019-03-24T20:46:56.592Z,10.13
2019-03-24T20:49:24.993Z,11.27
2019-03-24T20:51:53.397Z,10.70
2019-03-24T20:54:21.867Z,10.20
2019-03-24T20:56:50.269Z,9.40
2019-03-24T20:59:18.658Z,9.50
2019-03-24T21:01:47.055Z,9.90
2019-03-24T21:04:15.748Z,8.73
2019-03-24T21:06:44.162Z,8.63
2019-03-24T21:09:12.554Z,9.23
2019-03-24T21:11:41.049Z,9.03
2019-03-24T21:14:09.437Z,8.57
2019-03-24T21:16:37.918Z,8.90
2019-03-24T21:19:06.310Z,9.20
2019-03-24T21:21:36.245Z,8.50
2019-03-24T21:24:04.852Z,7.90
2019-03-24T21:26:33.264Z,8.20
2019-03-24T21:29:01.662Z,8.87
2019-03-24T21:31:30.107Z,8.67
2019-03-24T21:33:58.504Z,8.30
2019-03-24T21:36:26.984Z,8.03
2019-03-24T21:38:55.387Z,7.83
2019-03-24T21:41:23.930Z,8.10
2019-03-24T21:43:52.429Z,8.53
2019-03-24T21:46:20.909Z,8.40
2019-03-24T21:48:49.375Z,7.30
2019-03-24T21:51:17.770Z,8.57
2019-03-24T21:53:46.162Z,8.77
2019-03-24T21:56:14.979Z,8.70
2019-03-24T21:58:43.369Z,8.60
2019-03-24T22:01:11.760Z,8.57
2019-03-24T22:03:40.151Z,8.17
2019-03-24T22:06:08.552Z,8.07
2019-03-24T22:08:37.031Z,7.90
2019-03-24T22:11:05.425Z,8.47
2019-03-24T22:13:33.850Z,7.60
2019-03-24T22:16:02.231Z,7.93
2019-03-24T22:18:30.629Z,8.07
2019-03-24T22:20:59.023Z,8.10
2019-03-24T22:23:27.420Z,7.97
2019-03-24T22:25:55.825Z,7.90
2019-03-24T22:28:24.217Z,8.30
2019-03-24T22:30:52.639Z,9.40
2019-03-24T22:33:21.043Z,10.20
2019-03-24T22:35:49.465Z,11.30
2019-03-24T22:38:17.873Z,11.77
2019-03-24T22:40:46.289Z,12.00
2019-03-24T22:43:14.682Z,13.20
2019-03-24T22:45:43.116Z,12.60
2019-03-24T22:48:11.590Z,13.57
2019-03-24T22:50:40.268Z,13.40
2019-03-24T22:53:08.668Z,13.63
2019-03-24T22:55:37.119Z,14.97
2019-03-24T22:58:05.484Z,15.13
2019-03-24T23:00:53.078Z,14.27
2019-03-24T23:03:21.713Z,14.70
2019-03-24T23:05:50.114Z,14.63
2019-03-24T23:08:18.521Z,14.23
2019-03-24T23:10:46.935Z,13.70
2019-03-24T23:13:15.337Z,14.43
2019-03-24T23:15:43.736Z,14.93
2019-03-24T23:18:12.128Z,15.37
2019-03-24T23:20:40.534Z,14.20
2019-03-24T23:23:08.932Z,14.77
2019-03-24T23:25:37.332Z,15.57
2019-03-24T23:28:05.910Z,15.00
2019-03-24T23:30:34.301Z,15.23
2019-03-24T23:33:02.709Z,15.50
2019-03-24T23:35:31.115Z,14.97
2019-03-24T23:37:59.514Z,14.93
2019-03-24T23:40:27.913Z,15.43
2019-03-24T23:42:56.329Z,15.03
2019-03-24T23:45:24.717Z,14.90
2019-03-24T23:47:53.189Z,14.73
2019-03-24T23:50:21.587Z,14.90
2019-03-24T23:52:50.018Z,14.87
2019-03-24T23:55:18.412Z,14.70
2019-03-24T23:57:46.872Z,14.20
